createdAt,value
2019-03-08T00:00:54.998Z,4.73
2019-03-08T00:03:23.264Z,6.43
2019-03-08T00:05:51.551Z,4.83
2019-03-08T00:08:19.852Z,6.43
2019-03-08T00:10:48.222Z,8.53
2019-03-08T00:13:16.610Z,4.73
2019-03-08T00:15:44.915Z,7.27
2019-03-08T00:18:13.262Z,4.90
2019-03-08T00:20:41.520Z,7.47
2019-03-08T00:23:09.769Z,6.97
2019-03-08T00:25:38.018Z,6.80
2019-03-08T00:28:06.380Z,7.67
2019-03-08T00:30:34.701Z,6.10
2019-03-08T00:33:02.991Z,6.80
2019-03-08T00:35:31.379Z,6.10
2019-03-08T00:37:59.730Z,4.43
2019-03-08T00:40:28.073Z,7.87
2019-03-08T00:42:56.425Z,4.97
2019-03-08T00:45:24.736Z,6.43
2019-03-08T00:47:53.042Z,5.80
2019-03-08T00:50:21.378Z,6.67
2019-03-08T00:52:49.628Z,8.47
2019-03-08T00:55:17.894Z,5.57
2019-03-08T00:57:46.219Z,7.77
2019-03-08T01:00:22.370Z,8.17
2019-03-08T01:02:50.682Z,9.40
2019-03-08T01:05:18.938Z,7.67
2019-03-08T01:07:47.335Z,7.13
2019-03-08T01:10:21.078Z,6.83
2019-03-08T01:12:49.345Z,9.27
2019-03-08T01:15:18.075Z,7.70
2019-03-08T01:17:46.317Z,8.53
2019-03-08T01:20:20.684Z,5.03
2019-03-08T01:22:49.008Z,7.93
2019-03-08T01:25:18.739Z,10.30
2019-03-08T01:27:59.345Z,5.73
2019-03-08T01:30:27.719Z,8.30
2019-03-08T01:32:56.032Z,8.43
2019-03-08T01:35:24.281Z,9.87
2019-03-08T01:37:53.017Z,7.57
2019-03-08T01:40:21.387Z,6.73
2019-03-08T01:42:49.670Z,8.13
2019-03-08T01:45:17.929Z,11.13
2019-03-08T01:47:46.246Z,10.17
2019-03-08T01:50:14.493Z,10.07
2019-03-08T01:52:43.035Z,10.30
2019-03-08T01:55:11.293Z,8.27
2019-03-08T01:57:39.687Z,9.00
2019-03-08T02:00:14.408Z,10.57
2019-03-08T02:02:42.744Z,8.07
2019-03-08T02:05:10.992Z,10.83
2019-03-08T02:07:39.322Z,8.10
2019-03-08T02:10:12.788Z,11.17
2019-03-08T02:12:42.102Z,10.67
2019-03-08T02:15:12.714Z,10.50
2019-03-08T02:17:40.973Z,9.10
2019-03-08T02:20:14.533Z,9.27
2019-03-08T02:22:42.804Z,9.10
2019-03-08T02:25:11.906Z,12.07
2019-03-08T02:27:40.262Z,10.27
2019-03-08T02:30:13.501Z,9.53
2019-03-08T02:32:42.152Z,11.77
2019-03-08T02:35:10.527Z,15.80
2019-03-08T02:37:38.976Z,11.57
2019-03-08T02:40:32.121Z,9.87
2019-03-08T02:43:00.990Z,11.37
2019-03-08T02:45:29.308Z,7.43
2019-03-08T02:47:57.647Z,7.60
2019-03-08T02:50:25.885Z,9.17
2019-03-08T02:52:54.162Z,8.00
2019-03-08T02:55:22.441Z,7.60
2019-03-08T02:57:50.962Z,7.67
2019-03-08T03:00:19.491Z,6.27
2019-03-08T03:02:47.841Z,8.40
2019-03-08T03:05:16.092Z,8.03
2019-03-08T03:07:44.442Z,8.23
2019-03-08T03:10:13.669Z,9.57
2019-03-08T03:12:41.936Z,7.53
2019-03-08T03:15:14.325Z,6.27
2019-03-08T03:17:42.613Z,6.60
2019-03-08T03:20:13.410Z,5.70
2019-03-08T03:22:41.753Z,5.00
2019-03-08T03:25:12.027Z,6.27
2019-03-08T03:27:40.361Z,5.00
2019-03-08T03:30:14.279Z,6.53
2019-03-08T03:32:42.519Z,6.17
2019-03-08T03:35:10.855Z,5.70
2019-03-08T03:37:39.103Z,5.50
2019-03-08T03:40:13.731Z,5.63
2019-03-08T03:42:42.061Z,5.57
2019-03-08T03:45:12.316Z,6.83
2019-03-08T03:47:40.655Z,5.60
2019-03-08T03:50:12.827Z,5.43
2019-03-08T03:52:41.354Z,5.67
2019-03-08T03:55:14.443Z,7.37
2019-03-08T03:57:42.770Z,6.30
2019-03-08T04:00:19.718Z,7.27
2019-03-08T04:02:48.045Z,5.67
2019-03-08T04:05:16.383Z,6.87
2019-03-08T04:07:44.619Z,6.43
2019-03-08T04:10:14.439Z,6.77
2019-03-08T04:12:42.758Z,6.27
2019-03-08T04:15:13.751Z,4.47
2019-03-08T04:17:42.078Z,4.13
2019-03-08T04:20:13.414Z,5.57
2019-03-08T04:22:41.750Z,5.63
2019-03-08T04:25:11.318Z,5.03
2019-03-08T04:27:41.676Z,6.07
2019-03-08T04:30:21.852Z,6.53
2019-03-08T04:32:50.129Z,5.23
2019-03-08T04:35:18.421Z,5.77
2019-03-08T04:37:46.669Z,4.70
2019-03-08T04:40:14.939Z,4.03
2019-03-08T04:42:43.268Z,4.37
2019-03-08T04:45:16.559Z,4.83
2019-03-08T04:47:44.960Z,4.67
2019-03-08T04:50:15.071Z,7.00
2019-03-08T04:52:43.402Z,5.40
2019-03-08T04:55:16.675Z,3.83
2019-03-08T04:57:44.610Z,3.67
2019-03-08T05:00:14.570Z,7.67
2019-03-08T05:02:42.881Z,4.17
2019-03-08T05:05:11.213Z,5.13
2019-03-08T05:07:39.476Z,4.57
2019-03-08T05:10:10.875Z,5.83
2019-03-08T05:12:39.574Z,3.53
2019-03-08T05:15:07.920Z,6.30
2019-03-08T05:17:36.262Z,4.87
2019-03-08T05:20:06.515Z,8.17
2019-03-08T05:22:34.789Z,5.33
2019-03-08T05:25:04.185Z,7.33
2019-03-08T05:27:32.812Z,6.27
2019-03-08T05:30:01.135Z,6.70
2019-03-08T05:32:29.477Z,3.23
2019-03-08T05:34:57.743Z,7.97
2019-03-08T05:37:26.057Z,4.63
2019-03-08T05:39:54.340Z,2.77
2019-03-08T05:42:23.055Z,3.33
2019-03-08T05:44:51.360Z,3.57
2019-03-08T05:47:19.648Z,4.93
2019-03-08T05:49:47.894Z,4.53
2019-03-08T05:52:16.214Z,2.10
2019-03-08T05:54:44.487Z,5.67
2019-03-08T05:57:12.858Z,2.57
2019-03-08T05:59:41.111Z,4.87
2019-03-08T06:02:09.412Z,5.17
2019-03-08T06:04:37.818Z,1.97
2019-03-08T06:07:06.073Z,3.27
2019-03-08T06:09:34.331Z,1.37
2019-03-08T06:12:02.591Z,4.33
2019-03-08T06:14:31.021Z,5.57
2019-03-08T06:16:59.349Z,1.60
2019-03-08T06:19:27.630Z,1.83
2019-03-08T06:21:55.894Z,3.80
2019-03-08T06:24:24.163Z,2.73
2019-03-08T06:26:52.487Z,6.33
2019-03-08T06:29:20.814Z,5.60
2019-03-08T06:31:49.066Z,5.53
2019-03-08T06:34:17.408Z,5.20
2019-03-08T06:36:45.717Z,6.57
2019-03-08T06:39:13.975Z,6.07
2019-03-08T06:41:42.241Z,11.00
2019-03-08T06:44:10.516Z,12.43
2019-03-08T06:46:39.037Z,8.73
2019-03-08T06:49:07.381Z,11.93
2019-03-08T06:51:35.710Z,13.57
2019-03-08T06:54:03.986Z,9.17
2019-03-08T06:56:32.337Z,9.03
2019-03-08T06:59:02.222Z,7.37
2019-03-08T07:01:30.725Z,10.63
2019-03-08T07:03:59.081Z,7.57
2019-03-08T07:06:27.424Z,15.33
2019-03-08T07:08:55.795Z,16.40
2019-03-08T07:11:24.034Z,10.60
2019-03-08T07:13:52.293Z,13.80
2019-03-08T07:16:20.593Z,8.03
2019-03-08T07:18:48.935Z,10.77
2019-03-08T07:21:24.916Z,7.03
2019-03-08T07:23:57.612Z,11.10
2019-03-08T07:26:39.129Z,10.30
2019-03-08T07:29:11.781Z,9.37
2019-03-08T07:31:44.454Z,9.07
2019-03-08T07:34:20.616Z,19.37
2019-03-08T07:37:06.710Z,14.10
2019-03-08T07:39:48.921Z,12.07
2019-03-08T07:42:28.130Z,17.90
2019-03-08T07:45:01.056Z,18.50
2019-03-08T07:47:34.274Z,21.93
2019-03-08T07:50:04.188Z,22.80
2019-03-08T07:52:37.045Z,20.43
2019-03-08T07:55:08.957Z,22.97
2019-03-08T07:57:55.374Z,31.27
2019-03-08T08:00:40.537Z,25.40
2019-03-08T08:03:13.172Z,37.40
2019-03-08T08:05:58.543Z,22.43
2019-03-08T08:08:40.893Z,32.37
2019-03-08T08:11:17.437Z,25.43
2019-03-08T08:13:59.435Z,29.47
2019-03-08T08:16:47.718Z,20.40
2019-03-08T08:19:20.725Z,27.50
2019-03-08T08:22:05.677Z,37.67
2019-03-08T08:24:35.573Z,40.67
2019-03-08T08:27:08.576Z,31.30
2019-03-08T08:29:44.040Z,27.47
2019-03-08T08:32:25.813Z,31.50
2019-03-08T08:34:58.714Z,32.00
2019-03-08T08:37:34.642Z,32.13
2019-03-08T08:40:10.710Z,32.40
2019-03-08T08:42:40.650Z,34.60
2019-03-08T08:45:15.223Z,21.93
2019-03-08T08:48:01.453Z,16.33
2019-03-08T08:50:37.327Z,21.10
2019-03-08T08:53:10.408Z,22.17
2019-03-08T08:55:55.626Z,20.33
2019-03-08T08:58:37.362Z,20.40
2019-03-08T09:01:10.052Z,24.13
2019-03-08T09:03:56.564Z,16.90
2019-03-08T09:06:26.550Z,22.77
2019-03-08T09:09:02.597Z,22.07
2019-03-08T09:11:32.578Z,25.00
2019-03-08T09:14:17.681Z,19.50
2019-03-08T09:16:53.511Z,16.77
2019-03-08T09:19:23.486Z,17.07
2019-03-08T09:21:56.369Z,21.20
2019-03-08T09:24:26.413Z,19.47
2019-03-08T09:27:12.654Z,19.10
2019-03-08T09:29:48.580Z,21.87
2019-03-08T09:32:27.318Z,24.27
2019-03-08T09:35:06.139Z,20.43
2019-03-08T09:37:38.728Z,16.60
2019-03-08T09:40:28.578Z,17.43
2019-03-08T09:42:58.565Z,19.20
2019-03-08T09:45:34.450Z,14.57
2019-03-08T09:48:10.402Z,15.90
2019-03-08T09:50:46.524Z,17.40
2019-03-08T09:53:19.586Z,13.60
2019-03-08T09:56:01.598Z,18.07
2019-03-08T09:58:40.399Z,15.70
2019-03-08T10:01:19.359Z,16.37
2019-03-08T10:03:49.433Z,14.90
2019-03-08T10:06:22.215Z,17.90
2019-03-08T10:08:56.345Z,16.30
2019-03-08T10:11:27.579Z,14.70
2019-03-08T10:14:03.564Z,18.60
2019-03-08T10:16:33.608Z,15.73
2019-03-08T10:19:12.567Z,16.83
2019-03-08T10:21:42.535Z,15.93
2019-03-08T10:24:30.824Z,18.77
2019-03-08T10:27:00.734Z,23.33
2019-03-08T10:29:31.022Z,15.80
2019-03-08T10:32:00.921Z,14.73
2019-03-08T10:34:33.623Z,13.17
2019-03-08T10:37:03.617Z,14.47
2019-03-08T10:39:33.638Z,9.43
2019-03-08T10:42:03.623Z,9.57
2019-03-08T10:44:36.064Z,9.53
2019-03-08T10:47:22.361Z,9.60
2019-03-08T10:49:55.296Z,11.37
2019-03-08T10:52:36.011Z,12.60
2019-03-08T10:55:08.138Z,12.73
2019-03-08T10:57:43.919Z,9.70
2019-03-08T11:00:21.829Z,9.27
2019-03-08T11:02:51.729Z,11.30
2019-03-08T11:05:24.649Z,13.27
2019-03-08T11:08:08.353Z,14.07
2019-03-08T11:10:55.040Z,13.70
2019-03-08T11:13:27.909Z,12.07
2019-03-08T11:15:57.914Z,14.60
2019-03-08T11:18:27.855Z,16.33
2019-03-08T11:20:58.056Z,17.80
2019-03-08T11:23:33.719Z,12.83
2019-03-08T11:26:03.725Z,18.63
2019-03-08T11:28:33.635Z,19.47
2019-03-08T11:31:12.288Z,18.47
2019-03-08T11:33:48.006Z,13.10
2019-03-08T11:36:23.918Z,16.90
2019-03-08T11:38:56.818Z,15.70
2019-03-08T11:41:26.764Z,13.37
2019-03-08T11:43:59.456Z,13.57
2019-03-08T11:46:29.373Z,15.27
2019-03-08T11:49:02.049Z,17.30
2019-03-08T11:51:34.895Z,12.77
2019-03-08T11:54:08.219Z,12.27
2019-03-08T11:56:56.612Z,16.50
2019-03-08T11:59:44.645Z,15.33
2019-03-08T12:02:14.566Z,19.73
2019-03-08T12:04:50.373Z,11.43
2019-03-08T12:07:29.718Z,15.53
2019-03-08T12:09:59.973Z,16.70
2019-03-08T12:12:41.872Z,16.67
2019-03-08T12:15:27.184Z,16.47
2019-03-08T12:18:02.899Z,20.77
2019-03-08T12:20:35.486Z,20.70
2019-03-08T12:23:11.256Z,16.57
2019-03-08T12:25:41.229Z,17.67
2019-03-08T12:28:14.082Z,21.03
2019-03-08T12:30:59.019Z,22.17
2019-03-08T12:33:28.975Z,17.40
2019-03-08T12:36:17.007Z,35.77
2019-03-08T12:38:56.073Z,16.70
2019-03-08T12:41:38.186Z,30.00
2019-03-08T12:44:08.097Z,20.90
2019-03-08T12:46:38.026Z,20.40
2019-03-08T12:49:08.032Z,24.63
2019-03-08T12:51:38.039Z,18.67
2019-03-08T12:54:10.800Z,25.03
2019-03-08T12:56:43.721Z,24.07
2019-03-08T12:59:31.164Z,16.93
2019-03-08T13:02:07.250Z,29.93
2019-03-08T13:04:40.518Z,15.13
2019-03-08T13:07:16.176Z,22.70
2019-03-08T13:09:50.555Z,26.03
2019-03-08T13:12:18.925Z,22.53
2019-03-08T13:14:47.265Z,21.20
2019-03-08T13:17:15.893Z,18.50
2019-03-08T13:19:44.237Z,17.80
2019-03-08T13:22:12.549Z,18.83
2019-03-08T13:24:40.840Z,13.63
2019-03-08T13:27:09.111Z,17.47
2019-03-08T13:29:37.485Z,17.93
2019-03-08T13:32:05.766Z,16.87
2019-03-08T13:34:34.041Z,13.67
2019-03-08T13:37:02.289Z,20.10
2019-03-08T13:39:30.656Z,13.07
2019-03-08T13:41:58.948Z,19.53
2019-03-08T13:44:27.307Z,17.80
2019-03-08T13:46:55.636Z,16.77
2019-03-08T13:49:24.222Z,18.90
2019-03-08T13:51:52.569Z,16.20
2019-03-08T13:54:20.845Z,27.53
2019-03-08T13:56:49.118Z,24.23
2019-03-08T13:59:17.405Z,16.40
2019-03-08T14:01:45.668Z,19.43
2019-03-08T14:04:14.114Z,29.27
2019-03-08T14:06:42.446Z,25.77
2019-03-08T14:09:10.755Z,19.73
2019-03-08T14:11:39.090Z,26.77
2019-03-08T14:14:07.347Z,15.13
2019-03-08T14:16:35.710Z,23.73
2019-03-08T14:19:04.391Z,22.87
2019-03-08T14:21:32.705Z,14.87
2019-03-08T14:24:01.066Z,24.70
2019-03-08T14:26:29.416Z,20.40
2019-03-08T14:28:57.671Z,16.30
2019-03-08T14:31:27.597Z,15.40
2019-03-08T14:33:56.052Z,18.97
2019-03-08T14:36:24.386Z,11.83
2019-03-08T14:38:52.725Z,14.90
2019-03-08T14:41:31.837Z,18.50
2019-03-08T14:44:01.932Z,12.47
2019-03-08T14:46:31.878Z,7.03
2019-03-08T14:49:00.323Z,12.93
2019-03-08T14:51:28.659Z,13.13
2019-03-08T14:53:57.030Z,11.10
2019-03-08T14:56:25.309Z,20.67
2019-03-08T14:58:53.994Z,16.03
2019-03-08T15:01:22.346Z,15.33
2019-03-08T15:03:50.725Z,17.80
2019-03-08T15:06:19.049Z,17.23
2019-03-08T15:08:47.309Z,13.20
2019-03-08T15:11:15.570Z,16.17
2019-03-08T15:13:43.912Z,13.67
2019-03-08T15:16:13.222Z,19.03
2019-03-08T15:18:41.560Z,11.30
2019-03-08T15:21:09.844Z,7.33
2019-03-08T15:23:38.102Z,17.70
2019-03-08T15:26:06.412Z,13.87
2019-03-08T15:28:34.755Z,12.10
2019-03-08T15:31:03.099Z,17.80
2019-03-08T15:33:31.542Z,11.37
2019-03-08T15:35:59.865Z,14.97
2019-03-08T15:38:28.136Z,13.33
2019-03-08T15:40:57.370Z,17.30
2019-03-08T15:43:26.635Z,17.20
2019-03-08T15:45:54.965Z,13.07
2019-03-08T15:48:23.254Z,14.00
2019-03-08T15:50:51.628Z,17.33
2019-03-08T15:53:20.054Z,15.00
2019-03-08T15:55:52.924Z,14.13
2019-03-08T15:58:18.449Z,14.93
2019-03-08T16:00:46.860Z,18.80
2019-03-08T16:03:15.178Z,19.47
2019-03-08T16:05:43.512Z,15.63
2019-03-08T16:08:12.404Z,12.93
2019-03-08T16:10:40.829Z,17.80
2019-03-08T16:13:09.120Z,16.53
2019-03-08T16:15:37.500Z,13.53
2019-03-08T16:18:05.776Z,13.87
2019-03-08T16:20:37.442Z,14.87
2019-03-08T16:23:06.560Z,13.93
2019-03-08T16:25:34.564Z,15.73
2019-03-08T16:28:02.857Z,10.33
2019-03-08T16:30:38.337Z,18.03
2019-03-08T16:33:17.850Z,14.53
2019-03-08T16:35:51.760Z,16.50
2019-03-08T16:38:24.439Z,18.93
2019-03-08T16:40:57.230Z,16.43
2019-03-08T16:43:30.150Z,12.50
2019-03-08T16:46:02.947Z,12.40
2019-03-08T16:48:33.036Z,18.47
2019-03-08T16:51:03.106Z,16.87
2019-03-08T16:53:46.250Z,14.57
2019-03-08T16:56:19.170Z,14.23
2019-03-08T16:58:54.904Z,23.83
2019-03-08T17:01:41.939Z,16.37
2019-03-08T17:04:14.986Z,17.80
2019-03-08T17:06:50.863Z,20.37
2019-03-08T17:09:24.364Z,16.00
2019-03-08T17:12:00.111Z,15.37
2019-03-08T17:14:30.118Z,23.33
2019-03-08T17:17:09.134Z,12.77
2019-03-08T17:19:51.252Z,13.23
2019-03-08T17:22:33.225Z,12.73
2019-03-08T17:25:03.334Z,20.00
2019-03-08T17:27:36.186Z,14.37
2019-03-08T17:30:18.184Z,16.77
2019-03-08T17:33:03.304Z,16.90
2019-03-08T17:35:42.419Z,17.40
2019-03-08T17:38:18.139Z,15.83
2019-03-08T17:41:03.412Z,14.27
2019-03-08T17:43:36.159Z,18.77
2019-03-08T17:46:21.404Z,15.93
2019-03-08T17:48:54.334Z,6.53
2019-03-08T17:51:30.177Z,11.60
2019-03-08T17:54:00.061Z,15.23
2019-03-08T17:56:42.014Z,8.67
2019-03-08T17:59:21.361Z,13.43
2019-03-08T18:02:06.275Z,21.70
2019-03-08T18:04:52.186Z,16.70
2019-03-08T18:07:24.837Z,15.23
2019-03-08T18:10:00.517Z,15.27
2019-03-08T18:12:49.731Z,12.73
2019-03-08T18:15:19.708Z,14.97
2019-03-08T18:17:55.718Z,14.43
2019-03-08T18:20:37.739Z,15.60
2019-03-08T18:23:10.743Z,16.47
2019-03-08T18:25:40.684Z,24.70
2019-03-08T18:28:10.595Z,20.20
2019-03-08T18:30:40.497Z,16.10
2019-03-08T18:33:10.686Z,17.40
2019-03-08T18:35:40.586Z,20.00
2019-03-08T18:38:19.875Z,16.90
2019-03-08T18:40:56.042Z,26.67
2019-03-08T18:43:28.819Z,18.93
2019-03-08T18:46:04.654Z,22.90
2019-03-08T18:48:34.678Z,21.57
2019-03-08T18:51:19.791Z,15.57
2019-03-08T18:53:49.885Z,16.90
2019-03-08T18:56:25.880Z,21.77
2019-03-08T18:59:01.928Z,13.17
2019-03-08T19:01:48.216Z,11.17
2019-03-08T19:04:21.046Z,8.53
2019-03-08T19:06:53.437Z,21.83
2019-03-08T19:09:23.726Z,14.87
2019-03-08T19:11:53.626Z,14.13
2019-03-08T19:14:26.481Z,21.83
2019-03-08T19:17:01.843Z,14.03
2019-03-08T19:19:32.193Z,16.13
2019-03-08T19:22:02.142Z,25.43
2019-03-08T19:24:32.646Z,17.33
2019-03-08T19:27:08.592Z,17.40
2019-03-08T19:29:55.196Z,11.93
2019-03-08T19:32:25.186Z,13.00
2019-03-08T19:35:07.288Z,16.30
2019-03-08T19:37:55.839Z,22.63
2019-03-08T19:40:31.717Z,15.77
2019-03-08T19:43:04.632Z,22.13
2019-03-08T19:45:43.972Z,14.67
2019-03-08T19:48:23.077Z,23.13
2019-03-08T19:50:55.759Z,19.07
2019-03-08T19:53:28.401Z,12.87
2019-03-08T19:56:04.054Z,18.57
2019-03-08T19:58:33.939Z,18.60
2019-03-08T20:01:10.101Z,16.30
2019-03-08T20:03:46.299Z,13.43
2019-03-08T20:06:22.235Z,17.03
2019-03-08T20:08:58.192Z,17.50
2019-03-08T20:11:28.164Z,18.90
2019-03-08T20:13:58.086Z,18.67
2019-03-08T20:16:33.754Z,19.80
2019-03-08T20:19:12.490Z,19.93
2019-03-08T20:21:58.676Z,18.03
2019-03-08T20:24:40.850Z,25.43
2019-03-08T20:27:19.650Z,15.20
2019-03-08T20:29:52.529Z,23.87
2019-03-08T20:32:25.135Z,20.03
2019-03-08T20:35:04.268Z,20.73
2019-03-08T20:37:34.182Z,15.27
2019-03-08T20:40:06.281Z,16.73
2019-03-08T20:42:48.392Z,17.87
2019-03-08T20:45:21.441Z,20.60
2019-03-08T20:47:49.806Z,18.73
2019-03-08T20:50:18.084Z,18.37
2019-03-08T20:52:46.365Z,14.93
2019-03-08T20:55:14.618Z,14.40
2019-03-08T20:57:42.974Z,17.83
2019-03-08T21:00:16.183Z,15.13
2019-03-08T21:02:44.522Z,17.03
2019-03-08T21:05:12.904Z,25.63
2019-03-08T21:07:41.217Z,20.03
2019-03-08T21:10:14.030Z,19.57
2019-03-08T21:12:42.289Z,11.57
2019-03-08T21:15:12.666Z,25.93
2019-03-08T21:17:40.960Z,15.30
2019-03-08T21:20:10.887Z,17.97
2019-03-08T21:22:39.164Z,25.93
2019-03-08T21:25:10.338Z,29.17
2019-03-08T21:27:38.738Z,23.10
2019-03-08T21:30:17.374Z,26.60
2019-03-08T21:32:45.666Z,21.50
2019-03-08T21:35:14.133Z,19.60
2019-03-08T21:37:42.764Z,16.20
2019-03-08T21:40:12.266Z,18.87
2019-03-08T21:42:40.633Z,16.90
2019-03-08T21:45:14.163Z,18.73
2019-03-08T21:47:42.595Z,20.07
2019-03-08T21:50:13.395Z,16.83
2019-03-08T21:52:41.725Z,14.03
2019-03-08T21:55:10.022Z,15.10
2019-03-08T21:57:38.301Z,20.10
2019-03-08T22:00:17.899Z,22.17
2019-03-08T22:02:46.276Z,15.87
2019-03-08T22:05:16.138Z,19.23
2019-03-08T22:07:44.536Z,16.57
2019-03-08T22:10:20.530Z,22.40
2019-03-08T22:12:48.862Z,20.70
2019-03-08T22:15:17.186Z,18.50
2019-03-08T22:17:45.510Z,18.27
2019-03-08T22:20:13.811Z,20.90
2019-03-08T22:22:42.110Z,22.73
2019-03-08T22:25:12.141Z,17.77
2019-03-08T22:27:40.785Z,22.83
2019-03-08T22:30:15.012Z,21.50
2019-03-08T22:32:43.334Z,21.30
2019-03-08T22:35:11.609Z,24.03
2019-03-08T22:37:39.942Z,19.30
2019-03-08T22:40:09.326Z,26.80
2019-03-08T22:42:37.674Z,20.33
2019-03-08T22:45:07.173Z,21.20
2019-03-08T22:47:35.475Z,19.37
2019-03-08T22:50:06.557Z,19.37
2019-03-08T22:52:35.881Z,21.17
2019-03-08T22:55:06.559Z,20.17
2019-03-08T22:57:34.819Z,25.90
2019-03-08T23:00:03.631Z,19.57
2019-03-08T23:02:32.035Z,16.33
2019-03-08T23:05:00.384Z,27.50
2019-03-08T23:07:28.837Z,19.77
2019-03-08T23:09:57.198Z,18.20
2019-03-08T23:12:25.565Z,13.00
2019-03-08T23:14:53.922Z,16.33
2019-03-08T23:17:22.241Z,22.70
2019-03-08T23:19:50.824Z,21.50
2019-03-08T23:22:19.162Z,21.00
2019-03-08T23:24:47.551Z,29.30
2019-03-08T23:27:23.661Z,16.07
2019-03-08T23:29:53.781Z,19.43
2019-03-08T23:32:26.698Z,24.33
2019-03-08T23:34:55.074Z,14.23
2019-03-08T23:37:23.350Z,19.87
2019-03-08T23:39:51.695Z,16.40
2019-03-08T23:42:19.991Z,16.43
2019-03-08T23:44:48.350Z,17.83
2019-03-08T23:47:16.730Z,18.70
2019-03-08T23:49:45.010Z,19.23
2019-03-08T23:52:13.333Z,13.03
2019-03-08T23:54:41.610Z,20.63
2019-03-08T23:57:09.878Z,13.37
2019-03-08T23:59:38.143Z,16.90
